createdAt,value
2022-12-13T00:01:32.751Z,10.13
2022-12-13T00:04:37.196Z,12.13
2022-12-13T00:07:42.072Z,14.57
2022-12-13T00:10:46.662Z,10.80
2022-12-13T00:13:51.629Z,11.50
2022-12-13T00:16:56.461Z,10.38
2022-12-13T00:20:01.323Z,11.45
2022-12-13T00:23:06.047Z,10.15
2022-12-13T00:26:15.274Z,8.90
2022-12-13T00:29:20.177Z,10.60
2022-12-13T00:32:24.743Z,10.77
2022-12-13T00:35:29.253Z,8.38
2022-12-13T00:38:35.749Z,9.50
2022-12-13T00:41:41.195Z,12.60
2022-12-13T00:44:45.881Z,12.30
2022-12-13T00:47:50.412Z,12.68
2022-12-13T00:50:55.624Z,12.48
2022-12-13T00:54:01.329Z,12.10
2022-12-13T00:57:06.244Z,13.27
2022-12-13T01:00:12.101Z,13.75
2022-12-13T01:03:25.487Z,13.18
2022-12-13T01:06:44.731Z,9.70
2022-12-13T01:09:49.217Z,9.90
2022-12-13T01:12:55.230Z,12.93
2022-12-13T01:16:04.330Z,14.43
2022-12-13T01:19:08.900Z,11.45
2022-12-13T01:22:13.711Z,13.90
2022-12-13T01:25:18.468Z,14.45
2022-12-13T01:28:23.985Z,12.48
2022-12-13T01:31:28.909Z,12.48
2022-12-13T01:34:34.344Z,13.63
2022-12-13T01:37:39.037Z,12.18
2022-12-13T01:40:51.443Z,12.27
2022-12-13T01:44:07.514Z,11.82
2022-12-13T01:47:13.379Z,11.05
2022-12-13T01:50:25.100Z,11.38
2022-12-13T01:53:34.832Z,10.77
2022-12-13T01:56:44.851Z,11.35
2022-12-13T01:59:54.373Z,15.05
2022-12-13T02:02:59.961Z,11.73
2022-12-13T02:06:32.871Z,9.80
2022-12-13T02:09:38.158Z,13.35
2022-12-13T02:12:43.894Z,14.50
2022-12-13T02:16:42.001Z,12.20
2022-12-13T02:20:21.688Z,10.77
2022-12-13T02:23:51.206Z,12.93
2022-12-13T02:27:09.183Z,12.63
2022-12-13T02:30:49.013Z,10.10
2022-12-13T02:34:06.281Z,12.70
2022-12-13T02:38:00.858Z,12.93
2022-12-13T02:41:23.321Z,13.77
2022-12-13T02:44:35.727Z,13.50
2022-12-13T02:47:44.364Z,13.35
2022-12-13T02:50:51.225Z,11.02
2022-12-13T02:53:55.840Z,15.85
2022-12-13T02:57:00.868Z,12.30
2022-12-13T03:00:09.294Z,14.57
2022-12-13T03:03:38.818Z,13.82
2022-12-13T03:07:10.830Z,15.13
2022-12-13T03:10:29.750Z,13.77
2022-12-13T03:13:56.811Z,13.70
2022-12-13T03:17:05.521Z,13.18
2022-12-13T03:20:22.347Z,12.80
2022-12-13T03:23:28.529Z,15.10
2022-12-13T03:26:33.159Z,13.65
2022-12-13T03:29:37.992Z,11.10
2022-12-13T03:32:42.528Z,12.60
2022-12-13T03:35:47.554Z,13.63
2022-12-13T03:38:54.301Z,11.90
2022-12-13T03:41:58.831Z,14.18
2022-12-13T03:45:03.773Z,13.98
2022-12-13T03:48:08.534Z,14.40
2022-12-13T03:51:13.126Z,13.15
2022-12-13T03:54:17.429Z,14.77
2022-12-13T03:57:21.864Z,16.58
2022-12-13T04:00:26.483Z,16.10
2022-12-13T04:03:30.898Z,12.68
2022-12-13T04:06:35.392Z,15.60
2022-12-13T04:09:40.104Z,12.38
2022-12-13T04:13:03.333Z,14.45
2022-12-13T04:16:08.236Z,14.02
2022-12-13T04:19:23.725Z,13.50
2022-12-13T04:22:36.696Z,15.77
2022-12-13T04:25:44.274Z,12.88
2022-12-13T04:28:54.305Z,13.93
2022-12-13T04:31:59.174Z,13.80
2022-12-13T04:35:04.052Z,12.50
2022-12-13T04:38:08.638Z,14.20
2022-12-13T04:41:18.789Z,14.10
2022-12-13T04:44:27.614Z,14.40
2022-12-13T04:47:33.860Z,13.00
2022-12-13T04:50:38.416Z,11.90
2022-12-13T04:53:42.643Z,12.02
2022-12-13T04:56:47.272Z,12.13
2022-12-13T04:59:51.781Z,13.48
2022-12-13T05:02:56.613Z,15.25
2022-12-13T05:06:07.058Z,14.52
2022-12-13T05:09:31.912Z,14.90
2022-12-13T05:12:36.679Z,14.18
2022-12-13T05:15:41.422Z,13.63
2022-12-13T05:18:46.116Z,15.35
2022-12-13T05:21:50.933Z,13.00
2022-12-13T05:24:55.598Z,12.00
2022-12-13T05:28:00.662Z,13.73
2022-12-13T05:31:23.473Z,13.70
2022-12-13T05:34:28.609Z,11.75
2022-12-13T05:37:34.718Z,12.52
2022-12-13T05:40:39.140Z,12.45
2022-12-13T05:43:43.994Z,13.05
2022-12-13T05:46:48.622Z,12.55
2022-12-13T05:49:52.978Z,15.88
2022-12-13T05:52:57.476Z,16.08
2022-12-13T05:56:02.986Z,13.32
2022-12-13T05:59:07.857Z,13.45
2022-12-13T06:02:15.610Z,14.20
2022-12-13T06:05:24.531Z,14.82
2022-12-13T06:08:30.267Z,13.63
2022-12-13T06:11:34.547Z,13.65
2022-12-13T06:14:48.056Z,12.57
2022-12-13T06:17:52.435Z,13.95
2022-12-13T06:21:03.411Z,15.80
2022-12-13T06:24:08.856Z,15.02
2022-12-13T06:27:14.080Z,14.63
2022-12-13T06:30:18.686Z,13.48
2022-12-13T06:33:23.869Z,13.00
2022-12-13T06:36:28.674Z,16.02
2022-12-13T06:39:35.163Z,13.30
2022-12-13T06:42:39.912Z,12.63
2022-12-13T06:45:44.594Z,12.27
2022-12-13T06:48:49.916Z,14.23
2022-12-13T06:51:55.047Z,14.20
2022-12-13T06:55:00.054Z,15.05
2022-12-13T06:58:04.734Z,11.85
2022-12-13T07:01:15.012Z,17.40
2022-12-13T07:04:31.131Z,15.23
2022-12-13T07:07:36.151Z,14.32
2022-12-13T07:10:40.677Z,13.30
2022-12-13T07:13:46.259Z,13.90
2022-12-13T07:16:51.107Z,16.05
2022-12-13T07:19:55.824Z,13.60
2022-12-13T07:23:06.212Z,14.43
2022-12-13T07:26:10.855Z,15.43
2022-12-13T07:29:22.805Z,14.15
2022-12-13T07:32:28.128Z,16.52
2022-12-13T07:35:37.457Z,13.77
2022-12-13T07:38:43.655Z,13.23
2022-12-13T07:41:53.044Z,13.23
2022-12-13T07:44:57.872Z,20.23
2022-12-13T07:48:06.776Z,14.32
2022-12-13T07:51:12.815Z,15.63
2022-12-13T07:54:17.901Z,15.52
2022-12-13T07:57:22.352Z,16.10
2022-12-13T08:00:26.806Z,14.15
2022-12-13T08:03:31.481Z,15.52
2022-12-13T08:06:38.108Z,15.82
2022-12-13T08:09:45.606Z,13.70
2022-12-13T08:12:54.425Z,14.88
2022-12-13T08:16:01.125Z,14.60
2022-12-13T08:19:05.752Z,14.48
2022-12-13T08:22:14.487Z,13.27
2022-12-13T08:25:28.320Z,17.08
2022-12-13T08:28:34.448Z,15.10
2022-12-13T08:31:39.710Z,13.40
2022-12-13T08:34:45.512Z,13.05
2022-12-13T08:37:50.368Z,17.20
2022-12-13T08:40:59.214Z,13.70
2022-12-13T08:44:03.798Z,14.18
2022-12-13T08:47:09.520Z,20.45
2022-12-13T08:50:14.169Z,30.13
2022-12-13T08:53:18.930Z,31.77
2022-12-13T08:56:34.180Z,27.48
2022-12-13T08:59:38.958Z,36.78
2022-12-13T09:02:44.612Z,31.67
2022-12-13T09:05:49.684Z,30.98
2022-12-13T09:08:54.744Z,28.40
2022-12-13T09:12:00.167Z,28.33
2022-12-13T09:15:05.543Z,32.28
2022-12-13T09:18:36.304Z,31.63
2022-12-13T09:21:43.089Z,31.70
2022-12-13T09:24:50.232Z,30.85
2022-12-13T09:27:54.814Z,28.70
2022-12-13T09:30:59.271Z,33.00
2022-12-13T09:34:04.103Z,33.58
2022-12-13T09:37:09.170Z,36.08
2022-12-13T09:40:25.731Z,33.47
2022-12-13T09:43:42.473Z,30.73
2022-12-13T09:46:50.732Z,31.90
2022-12-13T09:49:55.848Z,30.42
2022-12-13T09:53:11.972Z,29.15
2022-12-13T09:56:27.252Z,32.85
2022-12-13T09:59:35.357Z,29.40
2022-12-13T10:03:00.703Z,30.38
2022-12-13T10:06:22.785Z,31.52
2022-12-13T10:09:28.117Z,32.65
2022-12-13T10:12:35.707Z,28.63
2022-12-13T10:15:45.001Z,33.50
2022-12-13T10:18:49.558Z,36.58
2022-12-13T10:21:54.364Z,31.00
2022-12-13T10:25:07.669Z,35.47
2022-12-13T10:28:12.540Z,33.38
2022-12-13T10:31:20.866Z,36.30
2022-12-13T10:34:29.300Z,35.47
2022-12-13T10:37:34.038Z,37.67
2022-12-13T10:40:45.743Z,39.28
2022-12-13T10:44:19.291Z,34.58
2022-12-13T10:47:26.022Z,32.63
2022-12-13T10:50:31.922Z,37.70
2022-12-13T10:53:48.164Z,36.55
2022-12-13T10:57:00.191Z,36.97
2022-12-13T11:00:37.935Z,38.50
2022-12-13T11:03:42.912Z,33.03
2022-12-13T11:06:48.869Z,36.20
2022-12-13T11:09:53.409Z,33.42
2022-12-13T11:13:05.056Z,36.42
2022-12-13T11:16:30.602Z,30.23
2022-12-13T11:19:45.677Z,37.72
2022-12-13T11:22:58.977Z,39.30
2022-12-13T11:26:25.187Z,37.40
2022-12-13T11:29:49.200Z,36.38
2022-12-13T11:33:27.855Z,35.45
2022-12-13T11:37:11.517Z,33.95
2022-12-13T11:40:24.660Z,39.58
2022-12-13T11:43:36.033Z,33.30
2022-12-13T11:50:46.712Z,38.00
2022-12-13T11:53:57.311Z,38.67
2022-12-13T11:57:07.941Z,36.72
2022-12-13T12:00:37.100Z,43.15
2022-12-13T12:04:19.820Z,36.80
2022-12-13T12:08:12.741Z,35.03
2022-12-13T12:11:38.110Z,34.60
2022-12-13T12:15:04.975Z,38.03
2022-12-13T12:18:16.606Z,33.00
2022-12-13T12:21:49.503Z,34.50
2022-12-13T12:24:57.494Z,32.08
2022-12-13T12:29:01.262Z,40.33
2022-12-13T12:32:46.743Z,40.83
2022-12-13T12:36:19.477Z,36.15
2022-12-13T12:40:07.552Z,37.53
2022-12-13T12:43:33.822Z,37.95
2022-12-13T12:47:32.534Z,32.72
2022-12-13T12:51:07.263Z,35.10
2022-12-13T12:54:32.497Z,32.42
2022-12-13T12:57:44.560Z,34.55
2022-12-13T13:01:36.118Z,34.53
2022-12-13T13:04:55.956Z,29.42
2022-12-13T13:08:18.487Z,32.10
2022-12-13T13:11:26.005Z,28.65
2022-12-13T13:14:39.952Z,35.97
2022-12-13T13:17:46.560Z,35.78
2022-12-13T13:21:23.311Z,33.47
2022-12-13T13:24:32.920Z,38.72
2022-12-13T13:27:46.305Z,35.55
2022-12-13T13:31:09.152Z,34.55
2022-12-13T13:34:26.261Z,39.10
2022-12-13T13:37:48.433Z,34.20
2022-12-13T13:40:53.514Z,38.80
2022-12-13T13:44:01.227Z,29.35
2022-12-13T13:47:17.274Z,32.28
2022-12-13T13:50:56.312Z,34.40
2022-12-13T13:54:25.311Z,25.88
2022-12-13T13:58:10.717Z,27.85
2022-12-13T14:01:44.580Z,31.60
2022-12-13T14:05:18.887Z,30.85
2022-12-13T14:08:56.346Z,28.63
2022-12-13T14:12:46.494Z,30.70
2022-12-13T14:16:34.417Z,36.72
2022-12-13T14:20:17.858Z,33.58
2022-12-13T14:23:44.475Z,32.08
2022-12-13T14:27:19.377Z,35.90
2022-12-13T14:30:29.026Z,36.58
2022-12-13T14:33:34.050Z,36.17
2022-12-13T14:36:39.141Z,34.20
2022-12-13T14:39:47.913Z,32.78
2022-12-13T14:42:54.977Z,33.97
2022-12-13T14:46:07.832Z,39.75
2022-12-13T14:49:13.046Z,39.03
2022-12-13T14:52:33.448Z,34.70
2022-12-13T14:55:38.264Z,39.72
2022-12-13T14:59:01.682Z,37.78
2022-12-13T15:02:06.563Z,31.85
2022-12-13T15:05:28.982Z,30.50
2022-12-13T15:08:36.598Z,39.65
2022-12-13T15:11:44.140Z,32.75
2022-12-13T15:14:55.771Z,38.67
2022-12-13T15:18:08.154Z,41.33
2022-12-13T15:21:24.970Z,37.70
2022-12-13T15:24:46.994Z,41.50
2022-12-13T15:28:05.767Z,40.90
2022-12-13T15:31:11.054Z,37.90
2022-12-13T15:34:30.323Z,36.03
2022-12-13T15:37:35.920Z,35.75
2022-12-13T15:40:47.736Z,35.25
2022-12-13T15:43:57.862Z,35.55
2022-12-13T15:47:08.571Z,34.70
2022-12-13T15:50:37.281Z,33.90
2022-12-13T15:54:10.842Z,36.25
2022-12-13T15:57:23.473Z,36.03
2022-12-13T16:00:32.504Z,37.63
2022-12-13T16:03:45.194Z,42.42
2022-12-13T16:06:58.267Z,42.33
2022-12-13T16:10:03.342Z,39.00
2022-12-13T16:13:08.353Z,34.42
2022-12-13T16:16:31.212Z,39.40
2022-12-13T16:19:35.716Z,35.80
2022-12-13T16:22:40.242Z,35.53
2022-12-13T16:25:45.329Z,37.20
2022-12-13T16:28:50.612Z,40.17
2022-12-13T16:32:01.478Z,38.08
2022-12-13T16:35:12.886Z,35.75
2022-12-13T16:38:25.804Z,36.47
2022-12-13T16:41:37.139Z,39.78
2022-12-13T16:44:42.074Z,35.60
2022-12-13T16:47:49.467Z,39.13
2022-12-13T16:50:57.925Z,35.17
2022-12-13T16:54:03.388Z,43.40
2022-12-13T16:57:09.539Z,37.35
2022-12-13T17:00:14.712Z,38.30
2022-12-13T17:03:19.326Z,30.38
2022-12-13T17:06:25.326Z,36.55
2022-12-13T17:09:34.007Z,31.15
2022-12-13T17:12:38.994Z,38.40
2022-12-13T17:15:43.823Z,35.45
2022-12-13T17:18:49.845Z,37.90
2022-12-13T17:21:54.857Z,34.15
2022-12-13T17:24:59.736Z,41.47
2022-12-13T17:28:07.440Z,39.65
2022-12-13T17:31:13.624Z,37.60
2022-12-13T17:34:18.992Z,34.63
2022-12-13T17:37:23.986Z,36.08
2022-12-13T17:40:28.721Z,38.72
2022-12-13T17:43:35.191Z,34.15
2022-12-13T17:46:40.410Z,37.60
2022-12-13T17:49:45.083Z,35.72
2022-12-13T17:52:49.846Z,37.45
2022-12-13T17:55:56.931Z,36.75
2022-12-13T17:59:01.528Z,36.28
2022-12-13T18:02:09.464Z,37.75
2022-12-13T18:05:17.829Z,40.15
2022-12-13T18:08:22.800Z,39.10
2022-12-13T18:11:33.455Z,33.70
2022-12-13T18:14:39.219Z,37.63
2022-12-13T18:18:10.090Z,35.85
2022-12-13T18:21:12.477Z,32.28
2022-12-13T18:24:17.251Z,31.08
2022-12-13T18:27:22.485Z,37.35
2022-12-13T18:30:28.170Z,34.00
2022-12-13T18:33:34.342Z,33.60
2022-12-13T18:36:41.981Z,34.63
2022-12-13T18:39:54.508Z,33.70
2022-12-13T18:42:59.773Z,33.63
2022-12-13T18:46:05.843Z,32.72
2022-12-13T18:49:11.488Z,37.42
2022-12-13T18:52:16.355Z,36.95
2022-12-13T18:55:21.343Z,35.90
2022-12-13T18:58:26.306Z,36.80
2022-12-13T19:01:31.306Z,38.83
2022-12-13T19:04:36.347Z,36.72
2022-12-13T19:07:41.093Z,32.95
2022-12-13T19:10:47.705Z,39.00
2022-12-13T19:13:52.917Z,34.40
2022-12-13T19:16:57.763Z,37.63
2022-12-13T19:20:04.202Z,39.10
2022-12-13T19:23:08.693Z,33.05
2022-12-13T19:26:14.785Z,38.42
2022-12-13T19:29:20.976Z,34.70
2022-12-13T19:32:25.867Z,31.55
2022-12-13T19:35:30.961Z,32.95
2022-12-13T19:38:35.897Z,31.17
2022-12-13T19:41:40.958Z,36.72
2022-12-13T19:44:45.752Z,34.03
2022-12-13T19:47:50.679Z,29.75
2022-12-13T19:51:04.446Z,29.15
2022-12-13T19:54:10.680Z,35.00
2022-12-13T19:57:15.163Z,35.50
2022-12-13T20:00:20.207Z,27.20
2022-12-13T20:03:25.157Z,32.00
2022-12-13T20:06:30.412Z,32.90
2022-12-13T20:09:35.608Z,34.67
2022-12-13T20:12:41.150Z,31.60
2022-12-13T20:15:48.915Z,32.00
2022-12-13T20:18:59.522Z,32.72
2022-12-13T20:22:04.537Z,30.48
2022-12-13T20:25:09.540Z,31.30
2022-12-13T20:28:16.324Z,33.20
2022-12-13T20:31:24.794Z,27.40
2022-12-13T20:34:29.520Z,31.45
2022-12-13T20:37:34.350Z,30.92
2022-12-13T20:40:39.280Z,26.90
2022-12-13T20:43:44.527Z,29.98
2022-12-13T20:46:53.825Z,29.20
2022-12-13T20:49:58.771Z,33.72
2022-12-13T20:53:03.595Z,39.60
2022-12-13T20:56:12.943Z,39.42
2022-12-13T20:59:17.531Z,33.20
2022-12-13T21:02:22.510Z,38.25
2022-12-13T21:05:27.392Z,37.70
2022-12-13T21:08:51.270Z,36.92
2022-12-13T21:11:56.411Z,31.63
2022-12-13T21:15:02.671Z,34.05
2022-12-13T21:18:07.464Z,31.75
2022-12-13T21:21:12.512Z,35.53
2022-12-13T21:24:19.527Z,34.38
2022-12-13T21:27:23.868Z,32.22
2022-12-13T21:30:28.658Z,33.85
2022-12-13T21:33:36.774Z,33.58
2022-12-13T21:36:44.624Z,34.72
2022-12-13T21:39:49.255Z,35.05
2022-12-13T21:42:54.471Z,32.10
2022-12-13T21:45:59.680Z,31.85
2022-12-13T21:49:05.690Z,33.58
2022-12-13T21:52:10.725Z,29.80
2022-12-13T21:55:38.499Z,32.25
2022-12-13T21:58:58.355Z,31.75
2022-12-13T22:02:16.372Z,26.67
2022-12-13T22:05:22.021Z,25.80
2022-12-13T22:08:27.165Z,26.73
2022-12-13T22:11:32.366Z,24.67
2022-12-13T22:14:37.992Z,28.02
2022-12-13T22:17:43.371Z,28.23
2022-12-13T22:20:57.057Z,29.67
2022-12-13T22:24:01.927Z,27.85
2022-12-13T22:27:07.112Z,26.83
2022-12-13T22:30:12.406Z,30.05
2022-12-13T22:33:17.200Z,24.00
2022-12-13T22:36:22.196Z,23.05
2022-12-13T22:39:27.078Z,24.40
2022-12-13T22:42:32.548Z,28.77
2022-12-13T22:45:37.521Z,27.90
2022-12-13T22:48:42.860Z,24.20
2022-12-13T22:51:47.545Z,24.48
2022-12-13T22:54:52.356Z,25.88
2022-12-13T22:57:57.314Z,25.90
2022-12-13T23:01:19.515Z,25.33
2022-12-13T23:04:25.034Z,22.40
2022-12-13T23:07:29.969Z,19.98
2022-12-13T23:10:53.620Z,21.75
2022-12-13T23:14:01.560Z,22.15
2022-12-13T23:17:06.793Z,25.15
2022-12-13T23:20:11.954Z,23.42
2022-12-13T23:23:16.852Z,21.70
2022-12-13T23:26:24.445Z,24.05
2022-12-13T23:29:29.004Z,21.52
2022-12-13T23:32:33.672Z,21.23
2022-12-13T23:35:38.188Z,21.10
2022-12-13T23:38:43.180Z,20.48
2022-12-13T23:41:47.821Z,20.08
2022-12-13T23:44:52.593Z,18.20
2022-12-13T23:47:57.388Z,23.17
2022-12-13T23:51:05.108Z,19.17
2022-12-13T23:54:16.184Z,20.67
2022-12-13T23:57:21.019Z,20.55
